Harborton, VA (23389)

3:08 AM EST on November 24, 2014 (GMT -0500)
Holly Cove | Change Station
CLOSE
Current Station
Personal Weather Station
Location: Onancock, VA
Elevation: 8 ft
Nearby Weather Stations

Elev 8 ft 37.72 °N, 75.80 °W | Updated 28 seconds ago

Heavy Rain
Heavy Rain
62.1 °F
Feels Like 62.1 °F
N
4.0
Wind Variable Wind from South
Gusts 5.4 mph

Today
High -- | Low -- °F
--% Chance of Precip.
Yesterday
High -- | Low -- °F
Precip. -- in
6:52 AM 4:46 PM
Waxing Crescent, 4% visible
Pressure 29.79 in
Visibility 2.5 miles
Clouds Overcast 500 ft
Dew Point 62 °F
Humidity 98%
Rainfall 0.00 in
Snow Depth Not available.
UV 0 out of 12
Pollen .10 out of 12
Air Quality Not available.
Flu Activity Not available.
METAR KMFV 240755Z AUTO 17015G23KT 2 1/2SM +RA OVC005 16/15 A2979 RMK AO2 P0027

More Conditions Fewer Conditions

Pressure 29.79 in
Visibility 2.5 miles
Clouds Overcast 500 ft
Dew Point 62 °F
Humidity 98%
Rainfall 0.00 in
Snow Depth Not available.
UV 0 out of 12
Pollen .10 out of 12
Air Quality Not available.
Flu Activity Not available.
METAR KMFV 240755Z AUTO 17015G23KT 2 1/2SM +RA OVC005 16/15 A2979 RMK AO2 P0027

More Conditions Fewer Conditions

10-Day Weather Forecast

Almanac

Astronomy

Nov. 24, 2014 Rise Set
Actual Time
Civil Twilight
Nautical Twilight
Astronomical Twilight
Moon
Length of Visible Light
Length of Day
Tomorrow will be .
, % of the Moon is Illuminated

Today's Extremes

State Highs State Lows

Community

WunderPhotos

Upload Photos

1,773,295 photos uploaded!

WunderBlogs® & News

Nearby

Air Quality

  Air Quality AQ Index Pollutant
Not available.

Snow Depth

Station Depth Elevation

Earthquake Activity

City Distance Mag. Time & Date
Minimum magnitude displayed is 2.5.

Coastal Water Temperatures

Place Temperature

Nearby Weather Stations